Time;durP1;ratioP1;P1;durP2;ratioP2;P2;SDS_P1;SDS_P2;PMS_P1;PMS_P2;Temp;Humidity;BMP_temperature;BMP_pressure;BME280_temperature;BME280_humidity;BME280_pressure;Samples;Min_cycle;Max_cycle;Signal;HPM_P1;HPM_P2
2022/01/26 00:06:44;;;;;;;12.38;10.43;;;16.80;39.30;;;;;;5014561;28;20189;-69
2022/01/26 00:09:13;;;;;;;12.90;11.05;;;16.90;39.40;;;;;;5014388;28;20200;-68
2022/01/26 00:11:41;;;;;;;14.60;11.60;;;16.80;39.90;;;;;;5014427;28;20677;-69
2022/01/26 00:14:11;;;;;;;14.30;11.75;;;16.80;39.40;;;;;;5014396;28;20275;-69
2022/01/26 00:16:40;;;;;;;13.75;10.85;;;16.80;39.50;;;;;;5014325;28;20287;-69
2022/01/26 00:19:09;;;;;;;13.63;11.95;;;16.70;39.40;;;;;;5014186;28;20284;-69
2022/01/26 00:21:40;;;;;;;13.65;11.32;;;16.70;39.50;;;;;;5014193;28;20201;-68
2022/01/26 00:24:25;;;;;;;16.55;12.65;;;16.70;39.50;;;;;;5014201;28;20618;-69
2022/01/26 00:27:07;;;;;;;12.52;11.23;;;16.70;39.50;;;;;;5014425;28;20197;-69
2022/01/26 00:29:36;;;;;;;14.15;11.35;;;16.60;39.50;;;;;;5014038;28;20287;-71
2022/01/26 00:40:37;;;;;;;14.65;12.13;;;16.60;39.50;;;;;;5002408;28;20713;-71
2022/01/26 00:43:14;;;;;;;16.55;12.40;;;16.50;39.60;;;;;;5015261;28;20656;-70
2022/01/26 00:45:41;;;;;;;14.73;12.20;;;16.50;39.60;;;;;;5014120;28;20203;-68
2022/01/26 00:48:09;;;;;;;15.77;12.98;;;16.50;39.70;;;;;;5014291;28;20223;-69
2022/01/26 00:50:37;;;;;;;14.43;11.75;;;16.50;39.70;;;;;;5014092;28;20203;-70
2022/01/26 00:53:05;;;;;;;15.27;12.43;;;16.50;39.80;;;;;;5013618;28;20238;-70
2022/01/26 00:55:32;;;;;;;14.02;12.13;;;16.50;39.70;;;;;;5013757;28;20193;-68
2022/01/26 00:57:59;;;;;;;14.20;11.60;;;16.50;39.80;;;;;;5013557;28;20197;-70
2022/01/26 01:00:28;;;;;;;15.30;12.80;;;16.40;39.80;;;;;;5013805;28;20287;-71
2022/01/26 01:02:56;;;;;;;16.25;12.75;;;16.40;39.70;;;;;;5015086;28;20284;-69
2022/01/26 01:05:27;;;;;;;14.68;12.35;;;16.40;39.80;;;;;;5013687;28;20258;-70
2022/01/26 01:08:00;;;;;;;16.00;12.98;;;16.40;39.80;;;;;;5013396;28;20193;-69
2022/01/26 01:10:27;;;;;;;13.90;11.77;;;16.40;39.90;;;;;;5013437;28;20255;-68
2022/01/26 01:12:57;;;;;;;14.18;12.27;;;16.40;39.90;;;;;;5013383;28;20319;-69
2022/01/26 01:15:25;;;;;;;15.65;12.70;;;16.40;39.90;;;;;;5013064;28;20520;-69
2022/01/26 01:18:03;;;;;;;15.50;12.35;;;16.30;39.90;;;;;;5012994;28;20199;-71
2022/01/26 01:20:46;;;;;;;14.82;12.40;;;16.30;39.90;;;;;;5013115;28;20570;-71
2022/01/26 01:26:19;;;;;;;16.92;13.27;;;16.30;39.90;;;;;;5013164;28;20192;-69
2022/01/26 01:29:07;;;;;;;15.20;12.50;;;16.30;39.90;;;;;;5014603;28;20640;-68
2022/01/26 01:31:43;;;;;;;17.25;13.02;;;16.30;40.00;;;;;;5013060;28;20288;-70
2022/01/26 01:34:12;;;;;;;15.23;12.02;;;16.30;40.00;;;;;;5013087;28;20228;-69
2022/01/26 01:36:41;;;;;;;15.60;12.70;;;16.30;40.00;;;;;;5013117;28;20254;-68
2022/01/26 01:39:09;;;;;;;15.32;12.38;;;16.30;40.00;;;;;;5012773;28;20201;-71
2022/01/26 01:41:35;;;;;;;16.70;12.75;;;16.30;40.10;;;;;;5013116;28;20201;-69
2022/01/26 01:44:04;;;;;;;14.40;12.10;;;16.20;40.10;;;;;;5014221;28;20208;-68
2022/01/26 01:46:31;;;;;;;15.05;12.07;;;16.20;40.10;;;;;;5015984;28;20201;-67
2022/01/26 01:48:58;;;;;;;17.23;12.80;;;16.20;40.10;;;;;;5016735;28;20200;-71
2022/01/26 01:51:31;;;;;;;14.95;12.75;;;16.20;40.10;;;;;;5014517;28;20607;-70
2022/01/26 01:53:58;;;;;;;14.90;12.25;;;16.20;40.10;;;;;;5012931;28;20249;-70
2022/01/26 01:56:26;;;;;;;16.30;13.13;;;16.20;40.30;;;;;;5013372;28;20255;-70
2022/01/26 01:58:53;;;;;;;17.88;13.45;;;16.20;40.20;;;;;;5015142;28;20211;-68
2022/01/26 02:01:21;;;;;;;16.75;14.20;;;16.10;40.20;;;;;;5021733;28;20196;-69
2022/01/26 02:03:48;;;;;;;17.30;13.55;;;16.10;40.20;;;;;;5021359;28;20783;-70
2022/01/26 02:06:15;;;;;;;16.88;12.90;;;16.10;40.20;;;;;;5014800;28;20205;-69
2022/01/26 02:08:43;;;;;;;18.42;13.40;;;16.10;40.30;;;;;;5013324;28;20205;-67
2022/01/26 02:11:12;;;;;;;17.95;13.23;;;16.10;40.40;;;;;;5013373;28;20205;-70
2022/01/26 02:13:47;;;;;;;17.55;14.10;;;16.10;40.40;;;;;;5013362;28;20636;-71
2022/01/26 02:16:21;;;;;;;16.50;12.77;;;16.10;40.30;;;;;;5014507;28;20176;-68
2022/01/26 02:19:09;;;;;;;17.35;13.98;;;16.00;40.40;;;;;;5013081;28;20193;-69
2022/01/26 02:22:03;;;;;;;17.15;13.23;;;16.00;40.30;;;;;;5014004;28;20204;-69
2022/01/26 02:49:39;;;;;;;17.85;13.70;;;15.90;40.60;;;;;;5012086;28;20210;-70
2022/01/26 02:52:25;;;;;;;19.02;13.13;;;15.90;40.40;;;;;;5011947;28;20200;-71
2022/01/26 02:55:10;;;;;;;16.00;12.65;;;15.90;40.40;;;;;;5013154;28;20291;-69
2022/01/26 02:57:53;;;;;;;17.17;13.68;;;15.90;40.50;;;;;;5011973;28;20206;-69
2022/01/26 03:00:25;;;;;;;16.20;13.38;;;15.90;40.40;;;;;;5011926;28;20200;-69
2022/01/26 03:02:56;;;;;;;16.13;13.25;;;15.90;40.50;;;;;;5013169;28;20177;-70
2022/01/26 03:05:29;;;;;;;16.70;13.15;;;15.90;40.50;;;;;;5011874;28;20205;-71
2022/01/26 03:08:00;;;;;;;15.68;12.85;;;15.80;40.50;;;;;;5015726;28;20230;-70
2022/01/26 03:10:37;;;;;;;15.93;12.60;;;15.80;40.40;;;;;;5015871;28;20196;-71
2022/01/26 03:13:09;;;;;;;16.05;12.48;;;15.80;40.50;;;;;;5015532;28;20208;-69
2022/01/26 03:15:41;;;;;;;14.27;12.10;;;15.80;40.40;;;;;;5016984;28;20212;-70
2022/01/26 03:18:33;;;;;;;14.32;11.73;;;15.80;40.40;;;;;;5015330;28;20208;-71
2022/01/26 03:21:03;;;;;;;14.80;11.25;;;15.80;40.40;;;;;;5015601;28;20220;-69
2022/01/26 03:29:26;;;;;;;15.65;12.70;;;15.70;40.60;;;;;;5016164;28;20197;-69
2022/01/26 03:34:37;;;;;;;13.25;11.02;;;15.70;40.40;;;;;;5016028;28;20319;-69
2022/01/26 03:37:07;;;;;;;13.52;11.05;;;15.70;40.50;;;;;;5015914;28;20200;-70
2022/01/26 03:39:41;;;;;;;11.60;10.02;;;15.70;40.50;;;;;;5015148;28;20208;-71
2022/01/26 03:42:14;;;;;;;12.93;11.30;;;15.70;40.50;;;;;;5016527;28;20637;-67
2022/01/26 03:44:41;;;;;;;11.93;10.30;;;15.70;40.50;;;;;;5014972;28;20286;-67
2022/01/26 03:47:09;;;;;;;10.80;9.70;;;15.70;40.70;;;;;;5015142;28;20214;-70
2022/01/26 03:49:36;;;;;;;11.80;10.07;;;15.70;40.50;;;;;;5016125;28;20274;-71
2022/01/26 03:52:04;;;;;;;10.43;9.30;;;15.70;40.50;;;;;;5016035;28;20196;-69
2022/01/26 03:54:30;;;;;;;11.15;9.27;;;15.60;40.40;;;;;;5014409;28;20263;-68
2022/01/26 03:56:58;;;;;;;12.00;10.40;;;15.60;40.50;;;;;;5015738;28;20191;-70
2022/01/26 03:59:26;;;;;;;12.23;10.65;;;15.60;40.40;;;;;;5014623;28;20201;-71
2022/01/26 04:01:54;;;;;;;12.38;10.85;;;15.60;40.30;;;;;;5014182;28;20303;-69
2022/01/26 04:04:21;;;;;;;10.80;9.73;;;15.60;40.20;;;;;;5014428;28;20220;-67
2022/01/26 04:06:48;;;;;;;11.25;10.05;;;15.60;40.30;;;;;;5014247;28;20269;-69
2022/01/26 04:09:16;;;;;;;10.45;9.35;;;15.60;40.40;;;;;;5014222;28;20204;-69
2022/01/26 04:11:46;;;;;;;10.55;9.55;;;15.60;40.20;;;;;;5014274;28;20197;-68
2022/01/26 04:14:16;;;;;;;10.18;9.07;;;15.60;40.40;;;;;;5013891;28;20220;-68
2022/01/26 04:16:44;;;;;;;9.77;8.77;;;15.50;40.20;;;;;;5015131;28;20660;-68
2022/01/26 04:19:12;;;;;;;10.88;9.57;;;15.50;40.40;;;;;;5014443;28;20197;-71
2022/01/26 04:21:52;;;;;;;12.73;11.38;;;15.50;40.50;;;;;;5013641;28;20219;-69
2022/01/26 04:24:23;;;;;;;13.30;11.63;;;15.50;40.30;;;;;;5013775;28;20221;-69
2022/01/26 04:26:56;;;;;;;14.82;12.80;;;15.50;40.50;;;;;;5013616;28;20291;-69
2022/01/26 04:29:26;;;;;;;13.35;11.55;;;15.50;40.30;;;;;;5013927;28;20201;-69
2022/01/26 04:31:55;;;;;;;12.63;10.23;;;15.50;40.30;;;;;;5013916;28;20238;-71
2022/01/26 04:34:22;;;;;;;12.90;11.10;;;15.50;40.30;;;;;;5013796;28;20216;-70
2022/01/26 04:36:53;;;;;;;12.52;10.90;;;15.50;40.30;;;;;;5013708;28;20669;-67
2022/01/26 04:39:25;;;;;;;13.27;11.15;;;15.50;40.30;;;;;;5013775;28;20637;-68
2022/01/26 04:41:55;;;;;;;13.05;11.07;;;15.50;40.10;;;;;;5013503;28;20203;-68
2022/01/26 04:44:25;;;;;;;12.35;11.05;;;15.50;40.10;;;;;;5014909;28;20204;-69
2022/01/26 04:46:52;;;;;;;12.90;11.38;;;15.50;40.10;;;;;;5013439;28;20230;-68
2022/01/26 04:49:21;;;;;;;13.05;11.38;;;15.60;40.10;;;;;;5013532;28;20689;-67
2022/01/26 04:51:48;;;;;;;11.93;10.27;;;15.60;40.00;;;;;;5013386;28;20606;-69
2022/01/26 04:54:16;;;;;;;13.20;11.50;;;15.60;40.10;;;;;;5013165;28;20217;-70
2022/01/26 04:56:43;;;;;;;11.73;9.95;;;15.60;40.00;;;;;;5013199;28;20293;-68
2022/01/26 04:59:10;;;;;;;12.02;10.50;;;15.60;40.10;;;;;;5013182;28;20695;-67
2022/01/26 05:01:38;;;;;;;11.82;10.38;;;15.70;40.10;;;;;;5014475;28;20188;-71
2022/01/26 05:04:05;;;;;;;12.00;9.25;;;15.70;40.10;;;;;;5014319;28;20215;-69
2022/01/26 05:06:33;;;;;;;11.65;10.00;;;15.70;40.10;;;;;;5014399;28;20193;-68
2022/01/26 05:09:01;;;;;;;10.73;9.63;;;15.70;40.10;;;;;;5013207;28;20196;-70
2022/01/26 05:11:34;;;;;;;11.02;9.82;;;15.70;40.10;;;;;;5013015;28;20200;-71
2022/01/26 05:14:01;;;;;;;11.63;10.13;;;15.70;40.00;;;;;;5013035;28;20220;-70
2022/01/26 05:16:28;;;;;;;10.95;9.43;;;15.80;40.00;;;;;;5012932;28;20568;-71
2022/01/26 05:18:56;;;;;;;10.45;9.30;;;15.80;39.90;;;;;;5012855;28;20197;-68
2022/01/26 05:21:23;;;;;;;11.50;9.55;;;15.80;39.90;;;;;;5012606;28;20548;-67
2022/01/26 05:23:51;;;;;;;9.98;8.98;;;15.90;39.80;;;;;;5012546;28;20291;-71
2022/01/26 05:26:18;;;;;;;10.45;9.07;;;15.90;39.90;;;;;;5012986;28;20197;-70
2022/01/26 05:28:45;;;;;;;11.00;9.65;;;15.90;39.80;;;;;;5013749;28;20203;-67
2022/01/26 05:31:12;;;;;;;11.35;10.13;;;16.00;39.70;;;;;;5014013;28;20191;-70
2022/01/26 05:33:39;;;;;;;9.80;8.82;;;16.00;39.60;;;;;;5012565;28;20220;-69
2022/01/26 05:36:06;;;;;;;11.30;9.88;;;16.00;39.50;;;;;;5012461;28;20201;-66
2022/01/26 05:38:34;;;;;;;10.70;9.18;;;16.00;39.40;;;;;;5012470;28;20205;-67
2022/01/26 05:41:02;;;;;;;12.05;10.52;;;16.00;39.30;;;;;;5012867;28;20188;-70
2022/01/26 05:43:30;;;;;;;13.55;11.40;;;16.00;39.40;;;;;;5012783;28;20724;-70
2022/01/26 05:46:01;;;;;;;12.40;10.48;;;16.10;39.50;;;;;;5013319;28;20228;-70
2022/01/26 05:48:28;;;;;;;13.52;11.27;;;16.10;39.90;;;;;;5013392;28;20201;-70
2022/01/26 05:51:04;;;;;;;12.57;10.70;;;16.10;40.00;;;;;;5012189;28;20212;-68
2022/01/26 05:53:31;;;;;;;11.38;9.98;;;16.20;40.20;;;;;;5012243;28;20720;-71
2022/01/26 05:55:59;;;;;;;12.00;8.88;;;16.20;40.00;;;;;;5012491;28;20574;-68
2022/01/26 05:58:27;;;;;;;13.20;11.63;;;16.20;39.50;;;;;;5012526;28;20247;-71
2022/01/26 06:00:54;;;;;;;12.63;10.55;;;16.20;39.30;;;;;;5012485;28;20263;-71
2022/01/26 06:03:21;;;;;;;13.18;10.82;;;16.30;39.20;;;;;;5012362;28;20221;-70
2022/01/26 06:05:48;;;;;;;11.68;10.38;;;16.30;39.30;;;;;;5013591;28;20188;-69
2022/01/26 06:08:15;;;;;;;11.05;9.80;;;16.30;39.20;;;;;;5012605;28;20201;-72
2022/01/26 06:10:41;;;;;;;11.20;9.90;;;16.30;39.20;;;;;;5012550;28;20712;-70
2022/01/26 06:13:09;;;;;;;14.57;11.30;;;16.30;39.10;;;;;;5012425;28;20588;-70
2022/01/26 06:15:37;;;;;;;12.85;10.57;;;16.30;39.10;;;;;;5012370;28;20633;-71
2022/01/26 06:18:05;;;;;;;12.57;10.60;;;16.40;39.30;;;;;;5012860;28;20685;-72
2022/01/26 06:20:32;;;;;;;11.90;10.40;;;16.40;39.90;;;;;;5013037;28;20308;-71
2022/01/26 06:23:00;;;;;;;12.50;10.15;;;16.40;39.30;;;;;;5012681;28;20215;-71
2022/01/26 06:25:27;;;;;;;10.23;8.82;;;16.40;39.40;;;;;;5013299;28;20204;-70
2022/01/26 06:27:57;;;;;;;12.93;10.65;;;16.40;39.40;;;;;;5012661;28;20196;-72
2022/01/26 06:30:24;;;;;;;10.88;9.55;;;16.40;39.20;;;;;;5013738;28;20189;-71
2022/01/26 06:32:53;;;;;;;10.70;9.13;;;16.40;39.30;;;;;;5012363;28;20199;-69
2022/01/26 06:35:20;;;;;;;11.15;9.23;;;16.40;39.20;;;;;;5012300;28;20213;-69
2022/01/26 06:37:47;;;;;;;10.73;9.45;;;16.40;39.20;;;;;;5011789;28;20205;-71
2022/01/26 06:40:14;;;;;;;10.85;9.70;;;16.50;39.20;;;;;;5011326;28;20200;-70
2022/01/26 06:42:51;;;;;;;9.52;8.48;;;16.50;39.00;;;;;;5011807;28;20199;-70
2022/01/26 06:45:21;;;;;;;11.25;10.13;;;16.50;39.20;;;;;;5011928;28;20200;-71
2022/01/26 06:50:42;;;;;;;11.70;9.85;;;16.50;38.70;;;;;;4996878;28;20192;-71
2022/01/26 06:53:10;;;;;;;11.65;9.48;;;16.50;39.00;;;;;;5011972;28;20224;-69
2022/01/26 06:55:37;;;;;;;11.45;9.95;;;16.50;38.90;;;;;;5011826;28;20255;-69
2022/01/26 06:58:04;;;;;;;10.63;9.10;;;16.60;38.70;;;;;;5011985;28;20197;-70
2022/01/26 07:00:32;;;;;;;11.57;9.80;;;16.60;38.70;;;;;;5011850;28;20193;-70
2022/01/26 07:02:59;;;;;;;10.57;9.15;;;16.60;38.60;;;;;;5012028;28;20379;-67
2022/01/26 07:05:26;;;;;;;10.15;9.15;;;16.60;38.70;;;;;;5012010;28;20203;-71
2022/01/26 07:07:55;;;;;;;10.45;9.35;;;16.60;38.60;;;;;;5011939;28;20238;-70
2022/01/26 07:10:22;;;;;;;11.20;10.05;;;16.60;38.60;;;;;;5011756;28;20205;-69
2022/01/26 07:12:49;;;;;;;10.63;9.10;;;16.60;38.60;;;;;;5011698;28;20200;-67
2022/01/26 07:21:22;;;;;;;11.07;9.73;;;16.60;38.60;;;;;;5011992;28;20196;-71
2022/01/26 07:23:51;;;;;;;11.68;9.43;;;16.50;38.50;;;;;;5012095;28;20676;-67
2022/01/26 07:26:18;;;;;;;9.60;8.63;;;16.50;38.50;;;;;;5013248;28;20251;-68
2022/01/26 07:28:45;;;;;;;10.35;9.23;;;16.50;38.50;;;;;;5011819;28;20207;-71
2022/01/26 07:31:12;;;;;;;8.57;7.68;;;16.60;38.40;;;;;;5012549;28;20200;-69
2022/01/26 07:33:41;;;;;;;8.80;7.80;;;16.60;38.60;;;;;;5011560;28;20311;-68
2022/01/26 07:36:08;;;;;;;8.52;7.63;;;16.60;38.60;;;;;;5011363;28;20219;-66
2022/01/26 07:38:36;;;;;;;9.27;8.13;;;16.60;38.60;;;;;;5011271;28;20653;-71
2022/01/26 07:41:04;;;;;;;9.25;8.25;;;16.60;38.40;;;;;;5011244;28;20201;-69
2022/01/26 07:43:31;;;;;;;8.07;7.18;;;16.70;38.40;;;;;;5011084;28;20225;-67
2022/01/26 07:45:59;;;;;;;8.77;7.90;;;16.60;38.40;;;;;;5011118;28;20203;-70
2022/01/26 07:48:26;;;;;;;9.15;8.25;;;16.60;38.20;;;;;;5012663;28;20284;-71
2022/01/26 07:50:54;;;;;;;8.07;7.28;;;16.60;38.30;;;;;;5011062;28;20200;-69
2022/01/26 07:53:21;;;;;;;9.63;8.63;;;16.60;38.20;;;;;;5012276;28;20739;-68
2022/01/26 07:55:49;;;;;;;9.15;8.07;;;16.60;38.00;;;;;;5015806;28;20259;-72
2022/01/26 07:58:19;;;;;;;9.15;8.07;;;16.70;38.20;;;;;;5014457;28;20657;-71
2022/01/26 08:00:47;;;;;;;9.07;7.80;;;16.60;38.10;;;;;;5014365;28;20649;-71
2022/01/26 08:03:14;;;;;;;11.07;9.27;;;16.70;38.20;;;;;;5014312;28;20304;-68
2022/01/26 08:05:41;;;;;;;9.77;8.75;;;16.60;37.70;;;;;;5014323;28;20197;-67
2022/01/26 08:08:08;;;;;;;9.63;8.35;;;16.60;38.10;;;;;;5014153;28;20235;-69
2022/01/26 08:10:35;;;;;;;9.32;8.52;;;16.60;37.90;;;;;;5014295;28;20676;-70
2022/01/26 08:13:02;;;;;;;11.05;9.15;;;16.70;38.00;;;;;;5014394;28;20201;-68
2022/01/26 08:15:30;;;;;;;10.60;9.25;;;16.60;37.80;;;;;;5014145;28;20244;-70
2022/01/26 08:17:58;;;;;;;9.45;8.50;;;16.70;38.00;;;;;;5015351;28;20649;-71
2022/01/26 08:20:25;;;;;;;9.27;8.38;;;16.70;38.00;;;;;;5015690;28;20223;-69
2022/01/26 08:22:53;;;;;;;8.70;7.82;;;16.60;38.00;;;;;;5015244;28;20205;-67
2022/01/26 08:25:21;;;;;;;10.50;9.40;;;16.70;37.80;;;;;;5014100;28;20193;-70
2022/01/26 08:27:54;;;;;;;10.80;9.27;;;16.70;38.00;;;;;;5014202;28;20228;-71
2022/01/26 08:30:21;;;;;;;10.18;9.07;;;16.70;37.90;;;;;;5015293;28;20181;-70
2022/01/26 08:32:50;;;;;;;8.68;7.85;;;16.70;37.90;;;;;;5013931;28;20197;-70
2022/01/26 08:35:17;;;;;;;10.13;9.13;;;16.70;37.90;;;;;;5013823;28;20304;-69
2022/01/26 08:37:44;;;;;;;8.80;7.90;;;16.70;37.80;;;;;;5014276;28;20661;-67
2022/01/26 08:40:11;;;;;;;10.63;9.40;;;16.80;37.80;;;;;;5014286;28;20201;-71
2022/01/26 08:42:41;;;;;;;9.32;8.43;;;16.80;37.80;;;;;;5013928;28;20196;-71
2022/01/26 08:45:09;;;;;;;9.23;8.25;;;16.70;37.60;;;;;;5015133;28;20216;-69
2022/01/26 08:47:36;;;;;;;10.43;9.30;;;16.80;38.00;;;;;;5013838;28;20211;-68
2022/01/26 08:50:05;;;;;;;9.98;8.98;;;16.80;38.40;;;;;;5015108;28;20653;-71
2022/01/26 08:52:32;;;;;;;9.80;8.80;;;16.80;37.70;;;;;;5013696;28;20193;-71
2022/01/26 08:54:59;;;;;;;9.65;8.60;;;16.80;37.70;;;;;;5014863;28;20219;-69
2022/01/26 08:57:26;;;;;;;9.85;8.85;;;16.80;37.80;;;;;;5013628;28;20221;-68
2022/01/26 08:59:53;;;;;;;10.10;9.02;;;16.80;37.60;;;;;;5013677;28;20205;-71
2022/01/26 09:02:20;;;;;;;10.13;9.10;;;16.80;37.60;;;;;;5013632;28;20196;-71
2022/01/26 09:04:47;;;;;;;11.98;10.23;;;16.80;37.70;;;;;;5014604;28;20209;-69
2022/01/26 09:07:16;;;;;;;10.40;9.40;;;16.80;37.60;;;;;;5014211;28;20196;-70
2022/01/26 09:09:45;;;;;;;10.23;9.02;;;16.80;37.50;;;;;;5013981;28;20243;-69
2022/01/26 09:12:13;;;;;;;10.93;9.73;;;16.90;37.70;;;;;;5015797;28;20252;-70
2022/01/26 09:14:40;;;;;;;10.95;9.48;;;16.90;37.60;;;;;;5014596;28;20220;-71
2022/01/26 09:17:08;;;;;;;10.85;9.75;;;16.90;37.70;;;;;;5014560;28;20207;-68
2022/01/26 09:19:35;;;;;;;10.27;9.18;;;16.90;37.50;;;;;;5015250;28;20197;-71
2022/01/26 09:22:03;;;;;;;11.10;8.48;;;16.90;37.50;;;;;;5014878;28;20201;-69
2022/01/26 09:24:32;;;;;;;9.80;8.73;;;16.90;37.80;;;;;;5013194;28;20213;-68
2022/01/26 09:27:00;;;;;;;10.10;9.10;;;16.90;37.50;;;;;;5013150;28;20207;-68
2022/01/26 09:29:27;;;;;;;11.05;9.88;;;16.90;37.60;;;;;;5013150;28;20642;-71
2022/01/26 09:31:54;;;;;;;11.57;8.73;;;16.90;37.40;;;;;;5014444;28;20264;-71
2022/01/26 09:34:22;;;;;;;12.15;10.02;;;16.90;37.60;;;;;;5013363;28;20216;-69
2022/01/26 09:36:49;;;;;;;11.57;9.85;;;16.90;37.60;;;;;;5013096;28;20256;-67
2022/01/26 09:39:17;;;;;;;10.57;9.48;;;16.90;37.90;;;;;;5012862;28;20291;-71
2022/01/26 09:41:46;;;;;;;11.82;10.20;;;16.90;37.50;;;;;;5014741;28;20673;-70
2022/01/26 09:44:13;;;;;;;10.15;9.10;;;17.00;37.50;;;;;;5014083;28;20217;-69
2022/01/26 09:46:41;;;;;;;10.38;9.15;;;17.00;37.50;;;;;;5012996;28;20657;-68
2022/01/26 09:49:08;;;;;;;10.27;8.70;;;16.90;37.30;;;;;;5014202;28;20227;-70
2022/01/26 09:51:40;;;;;;;10.00;9.00;;;16.90;37.40;;;;;;5012976;28;20196;-69
2022/01/26 09:54:11;;;;;;;9.25;8.35;;;17.00;37.40;;;;;;5012807;28;20271;-69
2022/01/26 09:56:38;;;;;;;11.38;10.23;;;16.90;37.50;;;;;;5012777;28;20224;-72
2022/01/26 09:59:07;;;;;;;13.07;11.20;;;17.00;37.20;;;;;;5012963;28;20203;-69
2022/01/26 10:01:41;;;;;;;11.15;9.75;;;17.00;37.30;;;;;;5012609;28;20235;-68
2022/01/26 10:04:18;;;;;;;11.63;10.00;;;17.00;37.10;;;;;;5012757;28;20343;-69
2022/01/26 10:06:48;;;;;;;10.82;9.55;;;17.00;37.30;;;;;;5014063;28;20173;-69
2022/01/26 10:17:37;;;;;;;11.32;10.13;;;17.00;37.10;;;;;;5012403;28;20579;-69
2022/01/26 10:20:05;;;;;;;12.25;10.27;;;17.10;37.10;;;;;;5012521;28;20204;-67
2022/01/26 10:22:33;;;;;;;11.52;10.32;;;17.10;37.10;;;;;;5013963;28;20197;-71
2022/01/26 10:25:09;;;;;;;10.18;8.10;;;17.10;37.10;;;;;;5011569;28;20307;-70
2022/01/26 10:27:38;;;;;;;10.70;9.60;;;17.10;37.20;;;;;;5012151;28;20196;-68
2022/01/26 10:30:08;;;;;;;9.27;8.25;;;17.10;37.00;;;;;;5013648;28;20197;-70
2022/01/26 10:32:35;;;;;;;9.93;8.65;;;17.10;37.20;;;;;;5012230;28;20837;-70
2022/01/26 10:35:02;;;;;;;10.60;9.50;;;17.10;37.10;;;;;;5012073;28;20311;-70
2022/01/26 10:37:29;;;;;;;10.73;9.10;;;17.10;36.90;;;;;;5012197;28;20204;-69
2022/01/26 10:40:12;;;;;;;11.95;9.88;;;17.10;37.10;;;;;;5012013;28;20251;-68
2022/01/26 10:42:39;;;;;;;11.68;9.57;;;17.10;36.90;;;;;;5012385;28;20239;-66
2022/01/26 10:45:13;;;;;;;12.07;9.52;;;17.20;37.00;;;;;;5011814;28;20280;-70
2022/01/26 10:47:45;;;;;;;9.75;8.73;;;17.20;37.00;;;;;;5012095;28;20235;-67
2022/01/26 10:50:48;;;;;;;10.35;8.68;;;17.20;37.10;;;;;;5012560;28;20291;-69
2022/01/26 10:53:18;;;;;;;12.60;10.73;;;17.20;37.00;;;;;;5012026;28;20227;-68
2022/01/26 10:55:46;;;;;;;11.43;9.95;;;17.20;37.00;;;;;;5012238;28;20213;-71
2022/01/26 10:58:16;;;;;;;11.93;10.13;;;17.20;36.60;;;;;;5012042;28;20664;-71
2022/01/26 11:00:45;;;;;;;10.85;9.70;;;17.20;36.70;;;;;;5012151;28;20196;-70
2022/01/26 11:03:12;;;;;;;11.48;9.75;;;17.20;36.90;;;;;;5012139;28;20597;-71
2022/01/26 11:05:39;;;;;;;10.60;9.45;;;17.20;36.80;;;;;;5013653;28;20199;-68
2022/01/26 11:08:09;;;;;;;10.75;8.43;;;17.20;36.90;;;;;;5011952;28;20247;-71
2022/01/26 11:10:37;;;;;;;10.63;9.38;;;17.20;36.90;;;;;;5012433;28;20295;-70
2022/01/26 11:13:05;;;;;;;9.70;8.48;;;17.20;36.50;;;;;;5012025;28;20200;-69
2022/01/26 11:15:32;;;;;;;11.23;9.48;;;17.20;36.80;;;;;;5011948;28;20606;-70
2022/01/26 11:18:08;;;;;;;9.35;8.05;;;17.20;36.50;;;;;;5011987;28;20211;-68
2022/01/26 11:20:48;;;;;;;11.15;9.13;;;17.30;36.70;;;;;;5011736;28;20238;-70
2022/01/26 11:23:15;;;;;;;10.05;9.05;;;17.20;36.90;;;;;;5011522;28;20228;-69
2022/01/26 11:25:42;;;;;;;11.02;9.40;;;17.30;36.80;;;;;;5012892;28;20195;-68
2022/01/26 11:28:15;;;;;;;10.38;8.93;;;17.30;36.80;;;;;;5014773;28;20200;-70
2022/01/26 11:30:42;;;;;;;11.73;10.27;;;17.30;36.60;;;;;;5015530;28;20204;-69
2022/01/26 11:33:16;;;;;;;10.57;9.20;;;17.30;36.70;;;;;;5015302;28;20217;-71
2022/01/26 11:35:46;;;;;;;8.90;8.05;;;17.30;36.80;;;;;;5015563;28;20217;-70
2022/01/26 11:46:53;;;;;;;11.95;9.82;;;17.30;36.80;;;;;;5015105;28;20367;-70
2022/01/26 11:49:25;;;;;;;11.10;9.18;;;17.30;36.70;;;;;;5015518;28;20295;-70
2022/01/26 11:51:53;;;;;;;11.52;10.13;;;17.30;36.80;;;;;;5015249;28;20224;-69
2022/01/26 11:54:21;;;;;;;10.90;9.27;;;17.30;36.70;;;;;;5015293;28;20216;-69
2022/01/26 11:56:56;;;;;;;12.90;10.35;;;17.40;36.80;;;;;;5016383;28;20283;-67
2022/01/26 11:59:25;;;;;;;10.80;9.70;;;17.40;36.70;;;;;;5015235;28;20303;-69
2022/01/26 12:01:58;;;;;;;10.65;9.38;;;17.40;36.70;;;;;;5016552;28;20224;-68
2022/01/26 12:04:27;;;;;;;11.70;9.60;;;17.40;36.70;;;;;;5016229;28;20224;-71
2022/01/26 12:07:00;;;;;;;13.65;11.55;;;17.40;36.70;;;;;;5015237;28;20232;-69
2022/01/26 12:09:27;;;;;;;12.45;10.20;;;17.40;36.60;;;;;;5014666;28;20641;-71
2022/01/26 12:11:55;;;;;;;12.02;10.43;;;17.40;36.70;;;;;;5015085;28;20236;-69
2022/01/26 12:14:22;;;;;;;13.85;10.43;;;17.40;36.70;;;;;;5014720;28;20590;-67
2022/01/26 12:16:52;;;;;;;13.13;10.43;;;17.30;36.50;;;;;;5014525;28;20316;-72
2022/01/26 12:19:32;;;;;;;12.30;10.32;;;17.40;36.70;;;;;;5014984;28;20205;-71
2022/01/26 12:36:36;;;;;;;11.60;9.57;;;17.30;36.80;;;;;;4955305;28;20221;-69
2022/01/26 12:39:10;;;;;;;13.48;11.30;;;17.30;36.90;;;;;;5001716;28;20196;-71
2022/01/26 12:41:45;;;;;;;11.35;9.65;;;17.30;36.60;;;;;;5014128;28;20613;-68
2022/01/26 12:44:13;;;;;;;12.98;10.90;;;17.30;36.70;;;;;;5014350;28;20218;-71
2022/01/26 12:46:40;;;;;;;9.63;8.63;;;17.30;36.80;;;;;;5014062;28;20197;-69
2022/01/26 12:49:10;;;;;;;12.85;10.35;;;17.30;36.80;;;;;;5013905;28;20251;-69
2022/01/26 12:51:41;;;;;;;12.35;10.10;;;17.30;36.80;;;;;;5014138;28;20232;-70
2022/01/26 12:54:09;;;;;;;13.48;10.93;;;17.30;36.70;;;;;;5014170;28;20723;-67
2022/01/26 12:56:36;;;;;;;12.07;10.30;;;17.30;36.60;;;;;;5013665;28;20700;-71
2022/01/26 12:59:04;;;;;;;13.23;10.65;;;17.30;36.60;;;;;;5013854;28;20299;-69
2022/01/26 13:01:31;;;;;;;10.15;9.13;;;17.30;36.40;;;;;;5013830;28;20200;-69
2022/01/26 13:03:59;;;;;;;12.05;10.05;;;17.30;36.70;;;;;;5013667;28;20642;-67
2022/01/26 13:06:27;;;;;;;10.93;9.60;;;17.30;36.90;;;;;;5013762;28;20554;-71
2022/01/26 13:08:56;;;;;;;10.52;9.43;;;17.30;36.60;;;;;;5013676;28;20576;-69
2022/01/26 13:11:26;;;;;;;10.68;9.27;;;17.30;36.80;;;;;;5013656;28;20200;-70
2022/01/26 13:14:03;;;;;;;12.48;9.52;;;17.30;36.90;;;;;;5013635;28;20248;-69
2022/01/26 13:16:36;;;;;;;10.82;9.60;;;17.30;36.70;;;;;;5013940;28;20247;-71
2022/01/26 13:19:17;;;;;;;9.80;8.80;;;17.30;36.70;;;;;;5013877;28;20216;-68
2022/01/26 13:24:36;;;;;;;10.63;9.45;;;17.30;36.60;;;;;;5010816;28;20212;-69
2022/01/26 13:27:14;;;;;;;10.65;8.55;;;17.30;36.60;;;;;;5013449;28;20192;-70
2022/01/26 13:29:54;;;;;;;12.50;9.25;;;17.40;36.90;;;;;;5013319;28;20220;-69
2022/01/26 13:32:48;;;;;;;10.32;9.23;;;17.40;36.70;;;;;;5014420;28;20173;-67
2022/01/26 13:35:35;;;;;;;8.98;8.05;;;17.40;36.50;;;;;;5013254;28;20217;-68
2022/01/26 13:38:17;;;;;;;9.40;8.38;;;17.30;36.80;;;;;;5013373;28;20201;-69
2022/01/26 13:40:55;;;;;;;10.02;8.77;;;17.30;36.70;;;;;;5013105;28;20252;-69
2022/01/26 13:51:58;;;;;;;10.88;8.82;;;17.30;36.50;;;;;;5014204;28;20528;-69
2022/01/26 13:57:44;;;;;;;11.70;9.63;;;17.40;36.60;;;;;;4956257;28;20253;-71
2022/01/26 14:00:16;;;;;;;10.75;9.10;;;17.40;37.50;;;;;;4956945;28;20733;-67
2022/01/26 14:02:43;;;;;;;10.13;8.93;;;17.40;36.90;;;;;;4989528;28;20254;-69
2022/01/26 14:05:12;;;;;;;10.82;9.30;;;17.40;36.90;;;;;;5013010;28;20236;-67
2022/01/26 14:07:39;;;;;;;12.35;9.88;;;17.30;36.60;;;;;;5012624;28;20209;-71
2022/01/26 14:10:07;;;;;;;11.48;9.57;;;17.40;36.90;;;;;;5012468;28;20205;-71
2022/01/26 14:12:39;;;;;;;13.30;10.38;;;17.40;36.60;;;;;;5012890;28;20228;-69
2022/01/26 14:15:08;;;;;;;11.50;9.40;;;17.30;36.70;;;;;;5012530;28;20231;-71
2022/01/26 14:17:55;;;;;;;12.18;9.10;;;17.30;36.80;;;;;;5012718;28;20220;-69
2022/01/26 14:20:46;;;;;;;10.43;9.15;;;17.30;36.70;;;;;;5013191;28;20211;-67
2022/01/26 14:23:30;;;;;;;10.18;8.88;;;17.30;36.80;;;;;;5012668;28;20232;-69
2022/01/26 14:25:58;;;;;;;12.52;10.10;;;17.30;36.70;;;;;;5012442;28;20201;-70
2022/01/26 14:28:31;;;;;;;10.10;9.00;;;17.30;36.70;;;;;;5013184;28;20699;-70
2022/01/26 14:31:11;;;;;;;9.27;8.30;;;17.20;36.70;;;;;;5012292;28;20279;-71
2022/01/26 14:33:53;;;;;;;10.63;8.85;;;17.20;36.90;;;;;;5012444;28;20318;-69